createdAt,value
2023-03-22T00:00:38.755Z,56.5
2023-03-22T00:05:44.785Z,56.5
2023-03-22T00:10:50.886Z,56.5
2023-03-22T00:15:56.968Z,56.5
2023-03-22T00:21:03.131Z,56.5
2023-03-22T00:26:09.153Z,56.5
2023-03-22T00:31:15.302Z,56.5
2023-03-22T00:36:21.323Z,56.5
2023-03-22T00:41:27.545Z,56
2023-03-22T00:46:33.500Z,56
2023-03-22T00:51:38.720Z,56
2023-03-22T00:56:44.697Z,56
2023-03-22T01:01:50.789Z,56
2023-03-22T01:06:56.868Z,56
2023-03-22T01:12:02.966Z,56
2023-03-22T01:17:09.061Z,56
2023-03-22T01:22:15.262Z,56
2023-03-22T01:27:20.287Z,56
2023-03-22T01:32:25.352Z,56
2023-03-22T01:37:31.444Z,56
2023-03-22T01:42:37.545Z,56
2023-03-22T01:47:43.631Z,56
2023-03-22T01:52:49.771Z,56
2023-03-22T01:57:55.804Z,56
2023-03-22T02:03:01.932Z,55.5
2023-03-22T02:08:07.993Z,55.5
2023-03-22T02:13:14.112Z,55.5
2023-03-22T02:18:20.172Z,55.5
2023-03-22T02:23:26.255Z,55.5
2023-03-22T02:28:32.352Z,55.5
2023-03-22T02:33:38.451Z,55.5
2023-03-22T02:38:43.588Z,55.5
2023-03-22T02:43:49.625Z,55.5
2023-03-22T02:48:55.718Z,55.5
2023-03-22T02:54:01.810Z,55.5
2023-03-22T02:59:07.889Z,55.5
2023-03-22T03:04:14.033Z,55.5
2023-03-22T03:09:20.121Z,55.5
2023-03-22T03:14:25.185Z,55.5
2023-03-22T03:19:30.290Z,55.5
2023-03-22T03:24:35.434Z,55.5
2023-03-22T03:29:40.516Z,55.5
2023-03-22T03:34:46.608Z,55.5
2023-03-22T03:39:51.730Z,55.5
2023-03-22T03:44:56.888Z,55
2023-03-22T03:50:02.986Z,55
2023-03-22T03:55:09.064Z,55
2023-03-22T04:00:15.159Z,55
2023-03-22T04:05:21.174Z,55
2023-03-22T04:10:27.266Z,55
2023-03-22T04:15:32.372Z,55
2023-03-22T04:20:38.460Z,55
2023-03-22T04:25:44.593Z,55
2023-03-22T04:30:50.674Z,55
2023-03-22T04:35:56.730Z,55
2023-03-22T04:41:02.886Z,55
2023-03-22T04:46:09.026Z,55
2023-03-22T04:51:14.994Z,55
2023-03-22T04:56:21.082Z,55
2023-03-22T05:01:27.188Z,55
2023-03-22T05:06:33.249Z,55
2023-03-22T05:11:39.371Z,55
2023-03-22T05:16:45.465Z,55
2023-03-22T05:21:50.573Z,55
2023-03-22T05:26:55.681Z,55
2023-03-22T05:32:00.782Z,55
2023-03-22T05:37:06.952Z,55
2023-03-22T05:42:12.051Z,55
2023-03-22T05:47:17.096Z,55
2023-03-22T05:52:23.215Z,55
2023-03-22T05:57:29.334Z,55
2023-03-22T06:02:35.364Z,54.5
2023-03-22T06:07:41.435Z,54.5
2023-03-22T06:12:47.537Z,54.5
2023-03-22T06:17:53.607Z,56
2023-03-22T06:22:59.711Z,56.5
2023-03-22T06:28:05.806Z,57
2023-03-22T06:33:11.893Z,57.5
2023-03-22T06:38:18.009Z,57.5
2023-03-22T06:43:24.056Z,57.5
2023-03-22T06:48:30.217Z,58
2023-03-22T06:53:35.249Z,58
2023-03-22T06:58:41.424Z,58
2023-03-22T07:03:47.511Z,58.5
2023-03-22T07:08:53.507Z,58.5
2023-03-22T07:13:59.610Z,58.5
2023-03-22T07:19:05.775Z,58.5
2023-03-22T07:24:11.807Z,58.5
2023-03-22T07:29:17.874Z,59
2023-03-22T07:34:23.965Z,59
2023-03-22T07:39:30.054Z,59
2023-03-22T07:44:36.149Z,59
2023-03-22T07:49:42.252Z,59
2023-03-22T07:54:48.334Z,59
2023-03-22T07:59:54.479Z,59
2023-03-22T08:05:00.521Z,59
2023-03-22T08:10:06.663Z,59.5
2023-03-22T08:15:12.723Z,59.5
2023-03-22T08:20:18.859Z,59.5
2023-03-22T08:25:25.026Z,59.5
2023-03-22T08:30:31.023Z,59.5
2023-03-22T08:35:37.035Z,59.5
2023-03-22T08:40:43.243Z,59.5
2023-03-22T08:45:49.367Z,59.5
2023-03-22T08:50:55.466Z,59.5
2023-03-22T08:56:01.390Z,59.5
2023-03-22T09:01:07.637Z,59.5
2023-03-22T09:06:13.696Z,59.5
2023-03-22T09:11:19.675Z,60
2023-03-22T09:16:25.937Z,60
2023-03-22T09:21:31.946Z,60
2023-03-22T09:26:37.998Z,60
2023-03-22T09:31:44.142Z,60
2023-03-22T09:36:50.196Z,60
2023-03-22T09:41:56.243Z,60
2023-03-22T09:47:02.554Z,59.5
2023-03-22T09:52:08.374Z,59.5
2023-03-22T09:57:14.504Z,59.5
2023-03-22T10:02:20.750Z,59
2023-03-22T10:07:26.931Z,59.5
2023-03-22T10:12:33.001Z,59.5
2023-03-22T10:17:39.233Z,59.5
2023-03-22T10:22:45.297Z,59.5
2023-03-22T10:27:51.544Z,59.5
2023-03-22T10:32:57.521Z,59
2023-03-22T10:38:03.689Z,59
2023-03-22T10:43:09.856Z,59
2023-03-22T10:48:16.012Z,59
2023-03-22T10:53:22.145Z,59
2023-03-22T10:58:28.312Z,59
2023-03-22T11:03:34.498Z,58.5
2023-03-22T11:08:40.702Z,58.5
2023-03-22T11:13:46.972Z,58.5
2023-03-22T11:18:53.316Z,58
2023-03-22T11:23:59.647Z,58
2023-03-22T11:29:05.922Z,58
2023-03-22T11:39:18.425Z,56.5
2023-03-22T11:44:24.753Z,56.5
2023-03-22T11:49:30.950Z,56.5
2023-03-22T11:54:37.213Z,56.5
2023-03-22T11:59:43.547Z,56.5
2023-03-22T12:04:49.865Z,56.5
2023-03-22T12:09:55.028Z,56.5
2023-03-22T12:14:59.939Z,56
2023-03-22T12:20:06.038Z,56
2023-03-22T12:25:12.132Z,56
2023-03-22T12:30:18.219Z,55.5
2023-03-22T12:35:24.308Z,55.5
2023-03-22T12:40:30.396Z,55.5
2023-03-22T12:45:36.488Z,55.5
2023-03-22T12:50:42.570Z,56
2023-03-22T12:55:48.681Z,55.5
2023-03-22T13:00:54.769Z,55
2023-03-22T13:06:00.838Z,55
2023-03-22T13:11:06.925Z,54.5
2023-03-22T13:16:13.019Z,54
2023-03-22T13:21:19.118Z,54.5
2023-03-22T13:26:25.208Z,54
2023-03-22T13:31:31.292Z,53
2023-03-22T13:36:37.400Z,52.5
2023-03-22T13:41:43.467Z,52.5
2023-03-22T13:46:49.571Z,52.5
2023-03-22T13:51:54.670Z,52.5
2023-03-22T13:57:00.755Z,52
2023-03-22T14:02:06.841Z,52
2023-03-22T14:07:12.930Z,51.5
2023-03-22T14:12:18.060Z,51.5
2023-03-22T14:17:24.136Z,51
2023-03-22T14:53:06.753Z,50
2023-03-22T14:58:12.848Z,50.5
2023-03-22T15:03:18.938Z,50.5
2023-03-22T15:08:25.122Z,50.5
2023-03-22T15:13:30.189Z,50.5
2023-03-22T15:18:36.453Z,50.5
2023-03-22T15:23:42.490Z,51
2023-03-22T15:28:48.562Z,51
2023-03-22T15:33:53.664Z,51
2023-03-22T15:38:59.756Z,50.5
2023-03-22T15:44:05.799Z,50
2023-03-22T15:49:11.829Z,50
2023-03-22T15:54:17.889Z,50
2023-03-22T15:59:24.119Z,50
2023-03-22T16:04:30.246Z,50
2023-03-22T16:09:36.330Z,50.5
2023-03-22T16:14:42.436Z,50.5
2023-03-22T16:19:48.497Z,50.5
2023-03-22T16:24:54.517Z,51
2023-03-22T16:30:00.514Z,51
2023-03-22T16:35:06.818Z,50.5
2023-03-22T16:40:12.686Z,50
2023-03-22T16:45:17.975Z,50
2023-03-22T16:50:23.983Z,49.5
2023-03-22T16:55:30.097Z,49.5
2023-03-22T17:00:36.270Z,49.5
2023-03-22T17:05:41.341Z,49.5
2023-03-22T17:10:47.428Z,49.5
2023-03-22T17:15:53.511Z,49.5
2023-03-22T17:20:59.575Z,49.5
2023-03-22T17:26:05.727Z,49.5
2023-03-22T17:31:11.629Z,49.5
2023-03-22T17:36:17.940Z,49.5
2023-03-22T17:41:24.035Z,49.5
2023-03-22T17:46:29.934Z,50
2023-03-22T17:51:35.992Z,50
2023-03-22T17:56:42.360Z,50
2023-03-22T18:06:54.426Z,50
2023-03-22T18:12:00.494Z,50
2023-03-22T18:17:06.668Z,50
2023-03-22T18:22:12.515Z,50
2023-03-22T18:27:18.860Z,50
2023-03-22T18:32:24.860Z,50
2023-03-22T18:37:31.017Z,50
2023-03-22T18:42:37.023Z,50
2023-03-22T18:47:43.163Z,50.5
2023-03-22T18:52:49.064Z,50.5
2023-03-22T18:57:54.331Z,51
2023-03-22T19:03:00.448Z,51
2023-03-22T19:08:06.540Z,51
2023-03-22T19:13:12.615Z,51
2023-03-22T19:18:18.771Z,51
2023-03-22T19:23:24.861Z,51
2023-03-22T19:28:30.874Z,51
2023-03-22T19:33:36.981Z,51
2023-03-22T19:38:43.122Z,51
2023-03-22T19:43:49.128Z,51
2023-03-22T19:48:55.272Z,51
2023-03-22T19:54:01.394Z,51
2023-03-22T19:59:07.454Z,51
2023-03-22T20:04:13.503Z,51
2023-03-22T20:09:19.584Z,51
2023-03-22T20:14:24.699Z,51
2023-03-22T20:19:30.764Z,51
2023-03-22T20:24:36.928Z,51.5
2023-03-22T20:29:42.983Z,51.5
2023-03-22T20:34:49.080Z,51.5
2023-03-22T20:39:54.983Z,51.5
2023-03-22T20:45:01.291Z,51.5
2023-03-22T20:50:07.347Z,51.5
2023-03-22T20:55:13.433Z,51.5
2023-03-22T21:00:19.490Z,51.5
2023-03-22T21:05:25.548Z,51.5
2023-03-22T21:10:31.514Z,51.5
2023-03-22T21:15:37.596Z,51.5
2023-03-22T21:20:43.897Z,51.5
2023-03-22T21:25:49.977Z,51.5
2023-03-22T21:30:56.043Z,51.5
2023-03-22T21:36:02.147Z,51.5
2023-03-22T21:41:08.242Z,51.5
2023-03-22T21:46:14.421Z,51.5
2023-03-22T21:51:20.388Z,51.5
2023-03-22T21:56:26.349Z,51.5
2023-03-22T22:01:32.586Z,51.5
2023-03-22T22:06:38.723Z,51.5
2023-03-22T22:11:44.761Z,51.5
2023-03-22T22:16:50.926Z,51.5
2023-03-22T22:21:56.771Z,51.5
2023-03-22T22:27:03.058Z,51.5
2023-03-22T22:32:09.117Z,51.5
2023-03-22T22:37:15.275Z,52
2023-03-22T22:42:21.202Z,52
2023-03-22T22:47:27.369Z,52
2023-03-22T22:52:33.391Z,52
2023-03-22T22:57:39.531Z,52
2023-03-22T23:02:45.594Z,52
2023-03-22T23:07:51.569Z,52
2023-03-22T23:12:57.661Z,52
2023-03-22T23:18:03.819Z,52
2023-03-22T23:23:09.906Z,52
2023-03-22T23:28:16.125Z,52
2023-03-22T23:33:22.203Z,52
2023-03-22T23:38:28.416Z,52
2023-03-22T23:43:34.668Z,52
2023-03-22T23:48:40.788Z,52
2023-03-22T23:53:46.812Z,52
2023-03-22T23:58:53.054Z,52
